createdAt,value
2018-09-13T00:01:46.402Z,4.90
2018-09-13T00:04:13.686Z,6.40
2018-09-13T00:06:42.874Z,6.55
2018-09-13T00:09:10.202Z,5.08
2018-09-13T00:11:38.016Z,3.12
2018-09-13T00:14:05.489Z,5.12
2018-09-13T00:16:32.762Z,3.98
2018-09-13T00:19:00.058Z,4.42
2018-09-13T00:21:27.332Z,3.85
2018-09-13T00:23:54.600Z,4.10
2018-09-13T00:26:21.938Z,5.45
2018-09-13T00:28:49.244Z,9.98
2018-09-13T00:31:16.521Z,5.55
2018-09-13T00:33:43.938Z,10.25
2018-09-13T00:36:11.239Z,6.70
2018-09-13T00:38:38.570Z,5.92
2018-09-13T00:41:05.888Z,5.95
2018-09-13T00:43:33.157Z,7.67
2018-09-13T00:46:00.418Z,6.15
2018-09-13T00:48:27.685Z,7.28
2018-09-13T00:50:54.965Z,4.90
2018-09-13T00:53:22.294Z,6.95
2018-09-13T00:55:49.575Z,5.00
2018-09-13T00:58:16.893Z,5.58
2018-09-13T01:00:44.174Z,5.87
2018-09-13T01:03:11.482Z,5.20
2018-09-13T01:05:38.775Z,5.70
2018-09-13T01:08:06.103Z,7.62
2018-09-13T01:10:33.389Z,5.47
2018-09-13T01:13:00.685Z,6.70
2018-09-13T01:15:27.990Z,5.50
2018-09-13T01:17:55.287Z,7.42
2018-09-13T01:20:22.586Z,7.67
2018-09-13T01:22:49.876Z,5.42
2018-09-13T01:25:17.258Z,6.53
2018-09-13T01:27:44.543Z,5.55
2018-09-13T01:30:11.815Z,6.53
2018-09-13T01:32:39.078Z,5.92
2018-09-13T01:35:06.445Z,9.15
2018-09-13T01:37:33.712Z,8.13
2018-09-13T01:40:01.008Z,5.65
2018-09-13T01:42:28.290Z,6.78
2018-09-13T01:44:55.607Z,5.40
2018-09-13T01:47:22.955Z,6.10
2018-09-13T01:49:50.245Z,12.03
2018-09-13T01:52:17.538Z,5.85
2018-09-13T01:54:44.836Z,8.10
2018-09-13T01:57:12.162Z,3.45
2018-09-13T01:59:39.438Z,6.90
2018-09-13T02:02:06.739Z,6.05
2018-09-13T02:04:34.103Z,4.05
2018-09-13T02:07:01.418Z,4.25
2018-09-13T02:09:28.737Z,7.75
2018-09-13T02:11:55.993Z,5.22
2018-09-13T02:14:23.306Z,4.40
2018-09-13T02:16:50.612Z,2.95
2018-09-13T02:19:17.874Z,3.98
2018-09-13T02:21:45.165Z,5.53
2018-09-13T02:24:12.469Z,5.78
2018-09-13T02:26:39.773Z,4.28
2018-09-13T02:29:07.131Z,2.80
2018-09-13T02:31:34.457Z,3.47
2018-09-13T02:34:01.736Z,5.05
2018-09-13T02:36:29.050Z,5.87
2018-09-13T02:38:56.383Z,5.58
2018-09-13T02:41:23.747Z,3.30
2018-09-13T02:43:51.005Z,5.40
2018-09-13T02:46:18.258Z,3.22
2018-09-13T02:48:45.610Z,6.00
2018-09-13T02:51:12.878Z,5.05
2018-09-13T02:53:41.062Z,7.12
2018-09-13T02:56:08.422Z,4.10
2018-09-13T02:58:35.722Z,4.72
2018-09-13T03:01:03.058Z,4.10
2018-09-13T03:03:30.380Z,6.25
2018-09-13T03:05:57.670Z,5.45
2018-09-13T03:08:24.979Z,4.08
2018-09-13T03:10:52.277Z,4.97
2018-09-13T03:13:19.520Z,3.80
2018-09-13T03:15:46.784Z,3.70
2018-09-13T03:18:14.156Z,5.62
2018-09-13T03:20:41.512Z,3.62
2018-09-13T03:23:08.837Z,3.70
2018-09-13T03:25:36.158Z,3.83
2018-09-13T03:28:03.457Z,4.10
2018-09-13T03:30:30.784Z,3.25
2018-09-13T03:32:58.116Z,3.92
2018-09-13T03:35:25.476Z,4.75
2018-09-13T03:37:53.934Z,3.02
2018-09-13T03:40:21.242Z,4.08
2018-09-13T03:42:48.533Z,7.62
2018-09-13T03:45:15.797Z,4.50
2018-09-13T03:47:43.121Z,3.80
2018-09-13T03:50:10.435Z,6.30
2018-09-13T03:52:37.750Z,7.22
2018-09-13T03:55:05.108Z,5.10
2018-09-13T03:57:32.370Z,5.97
2018-09-13T03:59:59.666Z,4.53
2018-09-13T04:02:27.154Z,7.10
2018-09-13T04:04:54.396Z,4.15
2018-09-13T04:07:21.686Z,2.72
2018-09-13T04:09:48.962Z,2.80
2018-09-13T04:12:16.264Z,3.85
2018-09-13T04:14:43.541Z,4.03
2018-09-13T04:17:10.868Z,3.72
2018-09-13T04:19:45.009Z,3.75
2018-09-13T04:22:14.239Z,4.00
2018-09-13T04:24:41.894Z,7.10
2018-09-13T04:27:09.349Z,4.30
2018-09-13T04:29:36.687Z,7.50
2018-09-13T04:32:04.367Z,5.65
2018-09-13T04:34:31.691Z,3.75
2018-09-13T04:36:58.957Z,4.20
2018-09-13T04:39:26.260Z,3.77
2018-09-13T04:41:53.672Z,5.67
2018-09-13T04:44:20.945Z,7.17
2018-09-13T04:46:48.240Z,5.17
2018-09-13T04:49:15.532Z,7.15
2018-09-13T04:51:42.956Z,6.92
2018-09-13T04:54:10.457Z,4.12
2018-09-13T04:56:37.781Z,6.20
2018-09-13T04:59:05.156Z,5.30
2018-09-13T05:01:32.451Z,4.17
2018-09-13T05:03:59.750Z,4.97
2018-09-13T05:06:27.052Z,6.58
2018-09-13T05:08:54.395Z,3.98
2018-09-13T05:11:21.654Z,4.08
2018-09-13T05:13:48.932Z,4.47
2018-09-13T05:16:16.210Z,6.08
2018-09-13T05:18:43.460Z,5.20
2018-09-13T05:21:10.751Z,3.72
2018-09-13T05:23:38.062Z,6.30
2018-09-13T05:26:05.433Z,4.70
2018-09-13T05:28:32.799Z,3.90
2018-09-13T05:31:00.116Z,5.62
2018-09-13T05:33:27.445Z,6.20
2018-09-13T05:35:54.714Z,6.20
2018-09-13T05:38:22.003Z,4.70
2018-09-13T05:40:49.282Z,6.75
2018-09-13T05:43:16.585Z,5.28
2018-09-13T05:45:44.697Z,5.45
2018-09-13T05:48:11.978Z,6.87
2018-09-13T05:50:39.230Z,5.33
2018-09-13T05:53:06.533Z,7.83
2018-09-13T05:55:33.818Z,5.05
2018-09-13T05:58:01.068Z,4.58
2018-09-13T06:00:28.883Z,3.98
2018-09-13T06:02:56.163Z,5.58
2018-09-13T06:05:23.421Z,5.15
2018-09-13T06:07:50.768Z,6.70
2018-09-13T06:10:18.078Z,4.42
2018-09-13T06:12:45.392Z,5.28
2018-09-13T06:15:12.686Z,4.53
2018-09-13T06:17:39.944Z,4.25
2018-09-13T06:20:07.214Z,4.15
2018-09-13T06:22:34.502Z,5.40
2018-09-13T06:25:01.830Z,3.50
2018-09-13T06:27:29.140Z,5.35
2018-09-13T06:29:56.493Z,4.28
2018-09-13T06:32:23.845Z,5.37
2018-09-13T06:34:51.134Z,8.23
2018-09-13T06:37:18.393Z,6.15
2018-09-13T06:39:45.702Z,4.42
2018-09-13T06:42:13.036Z,6.55
2018-09-13T06:44:40.329Z,6.35
2018-09-13T06:47:07.655Z,5.72
2018-09-13T06:49:34.949Z,5.45
2018-09-13T06:52:02.236Z,5.35
2018-09-13T06:54:29.551Z,5.30
2018-09-13T06:56:56.940Z,4.10
2018-09-13T06:59:24.192Z,4.47
2018-09-13T07:01:51.437Z,5.92
2018-09-13T07:04:18.792Z,8.48
2018-09-13T07:06:46.058Z,9.73
2018-09-13T07:09:14.727Z,6.72
2018-09-13T07:11:42.655Z,5.37
2018-09-13T07:14:09.933Z,5.40
2018-09-13T07:16:37.193Z,6.45
2018-09-13T07:19:15.506Z,4.40
2018-09-13T07:21:42.837Z,6.22
2018-09-13T07:24:10.091Z,6.95
2018-09-13T07:26:37.318Z,4.10
2018-09-13T07:29:04.664Z,5.62
2018-09-13T07:31:32.006Z,7.28
2018-09-13T07:33:59.551Z,5.47
2018-09-13T07:36:26.799Z,7.40
2018-09-13T07:38:54.101Z,6.28
2018-09-13T07:41:21.399Z,5.85
2018-09-13T07:43:48.693Z,7.10
2018-09-13T07:46:16.038Z,6.97
2018-09-13T07:48:43.333Z,4.08
2018-09-13T07:51:10.628Z,5.22
2018-09-13T07:53:37.998Z,5.80
2018-09-13T07:56:05.416Z,4.85
2018-09-13T07:58:32.761Z,5.00
2018-09-13T08:01:00.526Z,6.37
2018-09-13T08:03:27.871Z,5.70
2018-09-13T08:05:55.274Z,6.53
2018-09-13T08:08:22.777Z,7.20
2018-09-13T08:10:50.362Z,6.25
2018-09-13T08:13:17.758Z,7.40
2018-09-13T08:15:45.061Z,6.85
2018-09-13T08:18:13.248Z,6.92
2018-09-13T08:20:40.630Z,5.97
2018-09-13T08:23:07.955Z,5.50
2018-09-13T08:25:38.272Z,9.03
2018-09-13T08:28:06.702Z,4.78
2018-09-13T08:30:34.851Z,6.15
2018-09-13T08:33:03.418Z,9.43
2018-09-13T08:35:30.932Z,6.10
2018-09-13T08:37:59.122Z,8.50
2018-09-13T08:43:04.934Z,9.43
2018-09-13T08:45:33.251Z,9.93
2018-09-13T08:48:01.518Z,8.17
2018-09-13T08:50:29.418Z,10.47
2018-09-13T08:52:56.793Z,9.90
2018-09-13T08:55:24.116Z,8.10
2018-09-13T08:57:51.779Z,10.27
2018-09-13T09:00:19.665Z,6.40
2018-09-13T09:02:47.354Z,6.97
2018-09-13T09:05:14.696Z,7.07
2018-09-13T09:07:43.078Z,6.97
2018-09-13T09:10:11.271Z,6.97
2018-09-13T09:12:39.643Z,5.92
2018-09-13T09:15:08.368Z,9.23
2018-09-13T09:17:35.919Z,8.63
2018-09-13T09:20:03.535Z,8.50
2018-09-13T09:22:31.904Z,6.20
2018-09-13T09:24:59.297Z,11.30
2018-09-13T09:27:27.352Z,6.77
2018-09-13T09:29:54.754Z,7.00
2018-09-13T09:32:44.163Z,6.22
2018-09-13T09:35:19.636Z,7.33
2018-09-13T09:37:47.202Z,6.90
2018-09-13T09:40:14.617Z,8.53
2018-09-13T09:42:42.253Z,10.87
2018-09-13T09:45:18.206Z,7.78
2018-09-13T09:47:45.701Z,8.05
2018-09-13T09:50:13.682Z,4.62
2018-09-13T09:52:41.497Z,8.58
2018-09-13T09:55:09.181Z,7.78
2018-09-13T09:57:37.075Z,7.10
2018-09-13T10:00:04.495Z,7.42
2018-09-13T10:02:31.847Z,7.33
2018-09-13T10:04:59.417Z,6.77
2018-09-13T10:07:26.946Z,5.03
2018-09-13T10:09:54.279Z,9.53
2018-09-13T10:12:21.670Z,6.83
2018-09-13T10:14:54.277Z,9.47
2018-09-13T10:17:27.051Z,6.10
2018-09-13T10:20:00.232Z,6.30
2018-09-13T10:22:32.874Z,4.33
2018-09-13T10:25:05.903Z,5.07
2018-09-13T10:27:38.959Z,6.17
2018-09-13T10:30:12.076Z,6.87
2018-09-13T10:32:44.717Z,4.90
2018-09-13T10:35:17.331Z,8.67
2018-09-13T10:37:50.064Z,4.00
2018-09-13T10:40:23.205Z,4.97
2018-09-13T10:42:56.140Z,7.23
2018-09-13T10:45:29.055Z,4.83
2018-09-13T10:48:02.272Z,7.10
2018-09-13T10:50:33.956Z,5.60
2018-09-13T10:53:07.019Z,6.53
2018-09-13T10:55:34.830Z,5.60
2018-09-13T10:58:02.265Z,8.30
2018-09-13T11:00:29.566Z,5.70
2018-09-13T11:02:56.874Z,5.60
2018-09-13T11:05:24.465Z,7.70
2018-09-13T11:07:51.831Z,6.07
2018-09-13T11:10:19.211Z,4.30
2018-09-13T11:12:49.007Z,6.50
2018-09-13T11:15:24.172Z,5.77
2018-09-13T11:17:51.542Z,7.10
2018-09-13T11:20:19.070Z,3.03
2018-09-13T11:22:50.900Z,6.20
2018-09-13T11:25:18.206Z,8.53
2018-09-13T11:27:45.579Z,5.80
2018-09-13T11:30:13.157Z,6.67
2018-09-13T11:32:40.933Z,5.60
2018-09-13T11:35:08.429Z,5.10
2018-09-13T11:37:36.056Z,8.53
2018-09-13T11:40:04.095Z,4.33
2018-09-13T11:42:31.568Z,3.90
2018-09-13T11:45:00.012Z,5.07
2018-09-13T11:47:27.553Z,7.53
2018-09-13T11:49:54.913Z,6.27
2018-09-13T11:52:22.474Z,6.10
2018-09-13T11:54:50.414Z,6.03
2018-09-13T11:57:21.046Z,9.10
2018-09-13T11:59:49.570Z,6.40
2018-09-13T12:02:17.407Z,5.80
2018-09-13T12:04:45.245Z,6.90
2018-09-13T12:07:14.290Z,5.80
2018-09-13T12:09:41.636Z,5.63
2018-09-13T12:12:10.061Z,8.70
2018-09-13T12:14:37.909Z,5.93
2018-09-13T12:17:05.362Z,6.40
2018-09-13T12:19:33.383Z,7.40
2018-09-13T12:22:01.060Z,6.60
2018-09-13T12:24:28.394Z,4.00
2018-09-13T12:26:56.619Z,6.03
2018-09-13T12:29:24.155Z,7.37
2018-09-13T12:31:51.921Z,3.90
2018-09-13T12:34:19.527Z,5.20
2018-09-13T12:36:47.345Z,9.60
2018-09-13T12:39:15.347Z,8.17
2018-09-13T12:41:43.275Z,4.23
2018-09-13T12:44:11.198Z,10.53
2018-09-13T12:46:39.100Z,6.37
2018-09-13T12:49:06.879Z,6.63
2018-09-13T12:51:34.295Z,9.30
2018-09-13T12:54:02.057Z,7.83
2018-09-13T12:56:29.747Z,10.00
2018-09-13T12:58:57.163Z,5.13
2018-09-13T13:01:25.290Z,7.20
2018-09-13T13:03:52.868Z,5.10
2018-09-13T13:06:21.079Z,4.53
2018-09-13T13:08:49.223Z,5.03
2018-09-13T13:11:17.712Z,5.27
2018-09-13T13:13:45.842Z,4.50
2018-09-13T13:16:13.486Z,5.90
2018-09-13T13:18:42.024Z,8.13
2018-09-13T13:21:10.289Z,5.70
2018-09-13T13:23:38.185Z,6.10
2018-09-13T13:26:05.903Z,7.50
2018-09-13T13:28:34.400Z,5.80
2018-09-13T13:31:02.541Z,7.57
2018-09-13T13:33:32.492Z,5.40
2018-09-13T13:36:02.233Z,6.53
2018-09-13T13:38:29.903Z,6.73
2018-09-13T13:40:58.031Z,5.50
2018-09-13T13:43:27.437Z,5.23
2018-09-13T13:45:55.541Z,3.70
2018-09-13T13:48:24.061Z,4.63
2018-09-13T13:50:52.486Z,3.87
2018-09-13T13:53:22.701Z,4.20
2018-09-13T13:55:50.628Z,3.67
2018-09-13T13:58:18.531Z,7.10
2018-09-13T14:00:47.598Z,4.33
2018-09-13T14:03:16.840Z,6.17
2018-09-13T14:05:47.116Z,4.63
2018-09-13T14:08:17.812Z,4.60
2018-09-13T14:10:48.489Z,5.77
2018-09-13T14:13:18.293Z,4.70
2018-09-13T14:15:48.860Z,5.33
2018-09-13T14:18:19.382Z,6.57
2018-09-13T14:20:46.855Z,3.60
2018-09-13T14:23:14.418Z,5.73
2018-09-13T14:25:41.865Z,4.80
2018-09-13T14:28:09.477Z,4.20
2018-09-13T14:30:38.364Z,3.90
2018-09-13T14:33:06.241Z,4.53
2018-09-13T14:35:34.296Z,4.13
2018-09-13T14:38:03.872Z,4.60
2018-09-13T14:40:31.727Z,5.37
2018-09-13T14:43:01.802Z,4.60
2018-09-13T14:45:31.763Z,5.50
2018-09-13T14:48:00.688Z,4.93
2018-09-13T14:50:30.943Z,3.50
2018-09-13T14:53:00.586Z,4.40
2018-09-13T14:55:30.933Z,4.57
2018-09-13T14:58:01.133Z,3.40
2018-09-13T15:00:30.553Z,4.20
2018-09-13T15:03:02.807Z,3.80
2018-09-13T15:05:32.817Z,4.70
2018-09-13T15:08:03.187Z,4.63
2018-09-13T15:10:32.840Z,3.67
2018-09-13T15:13:03.500Z,7.43
2018-09-13T15:15:33.726Z,6.23
2018-09-13T15:18:04.170Z,5.93
2018-09-13T15:20:34.008Z,9.70
2018-09-13T15:23:04.065Z,3.80
2018-09-13T15:25:35.203Z,4.33
2018-09-13T15:28:03.583Z,4.93
2018-09-13T15:30:33.698Z,4.97
2018-09-13T15:33:02.851Z,4.67
2018-09-13T15:35:34.050Z,5.00
2018-09-13T15:38:03.820Z,11.20
2018-09-13T15:40:34.628Z,5.93
2018-09-13T15:43:04.151Z,9.17
2018-09-13T15:45:32.544Z,4.73
2018-09-13T15:48:03.860Z,4.30
2018-09-13T15:50:34.248Z,19.70
2018-09-13T15:55:48.259Z,5.62
2018-09-13T15:58:16.846Z,4.80
2018-09-13T16:00:47.678Z,8.20
2018-09-13T16:03:18.043Z,7.00
2018-09-13T16:05:49.438Z,5.40
2018-09-13T16:08:20.607Z,5.20
2018-09-13T16:10:50.223Z,4.10
2018-09-13T16:13:20.329Z,5.65
2018-09-13T16:15:50.228Z,5.43
2018-09-13T16:18:21.973Z,5.28
2018-09-13T16:20:49.763Z,9.85
2018-09-13T16:23:17.461Z,6.83
2018-09-13T16:25:45.022Z,8.28
2018-09-13T16:28:12.423Z,4.80
2018-09-13T16:30:39.747Z,4.70
2018-09-13T16:33:07.660Z,5.28
2018-09-13T16:35:35.555Z,5.20
2018-09-13T16:38:08.171Z,4.20
2018-09-13T16:40:40.991Z,4.50
2018-09-13T16:43:15.200Z,6.00
2018-09-13T16:45:42.784Z,5.65
2018-09-13T16:48:10.414Z,5.80
2018-09-13T16:53:21.995Z,4.97
2018-09-13T16:55:51.509Z,8.60
2018-09-13T16:58:19.189Z,4.95
2018-09-13T17:00:46.591Z,8.37
2018-09-13T17:03:17.724Z,5.47
2018-09-13T17:05:45.384Z,8.60
2018-09-13T17:08:12.744Z,5.03
2018-09-13T17:10:40.130Z,5.03
2018-09-13T17:13:09.643Z,12.05
2018-09-13T17:15:37.628Z,7.00
2018-09-13T17:18:05.225Z,7.15
2018-09-13T17:20:32.616Z,9.50
2018-09-13T17:22:59.972Z,5.15
2018-09-13T17:25:27.328Z,6.40
2018-09-13T17:27:54.801Z,12.18
2018-09-13T17:30:22.380Z,11.38
2018-09-13T17:32:50.207Z,13.48
2018-09-13T17:35:20.243Z,6.58
2018-09-13T17:37:48.790Z,7.60
2018-09-13T17:40:16.407Z,7.10
2018-09-13T17:42:43.950Z,11.20
2018-09-13T17:45:11.314Z,10.80
2018-09-13T17:47:38.704Z,7.15
2018-09-13T17:50:06.486Z,6.47
2018-09-13T17:52:33.862Z,5.95
2018-09-13T17:55:01.207Z,6.20
2018-09-13T17:57:28.556Z,6.30
2018-09-13T17:59:56.170Z,6.83
2018-09-13T18:02:23.550Z,7.35
2018-09-13T18:04:51.732Z,7.78
2018-09-13T18:07:19.300Z,8.83
2018-09-13T18:09:47.092Z,9.30
2018-09-13T18:12:14.544Z,8.00
2018-09-13T18:14:41.938Z,7.00
2018-09-13T18:17:09.435Z,11.12
2018-09-13T18:19:37.119Z,11.85
2018-09-13T18:22:04.578Z,8.55
2018-09-13T18:24:32.322Z,7.67
2018-09-13T18:27:00.311Z,8.78
2018-09-13T18:29:30.309Z,11.08
2018-09-13T18:31:58.510Z,7.40
2018-09-13T18:34:26.170Z,7.85
2018-09-13T18:36:53.635Z,12.63
2018-09-13T18:39:21.719Z,18.48
2018-09-13T18:41:49.151Z,13.70
2018-09-13T18:44:16.555Z,9.15
2018-09-13T18:46:43.987Z,9.25
2018-09-13T18:49:11.853Z,8.28
2018-09-13T18:51:39.469Z,8.95
2018-09-13T18:54:06.811Z,9.68
2018-09-13T18:56:34.570Z,9.38
2018-09-13T18:59:01.906Z,9.70
2018-09-13T19:01:29.372Z,10.38
2018-09-13T19:03:56.969Z,9.43
2018-09-13T19:06:24.708Z,10.23
2018-09-13T19:08:52.653Z,10.18
2018-09-13T19:11:21.188Z,9.18
2018-09-13T19:13:48.623Z,10.55
2018-09-13T19:16:15.996Z,12.68
2018-09-13T19:18:43.767Z,9.40
2018-09-13T19:21:13.149Z,10.48
2018-09-13T19:23:40.863Z,10.25
2018-09-13T19:26:08.203Z,17.45
2018-09-13T19:28:35.551Z,15.43
2018-09-13T19:31:02.955Z,12.03
2018-09-13T19:33:30.508Z,10.50
2018-09-13T19:35:57.949Z,10.23
2018-09-13T19:41:09.266Z,8.68
2018-09-13T19:43:36.761Z,12.15
2018-09-13T19:46:04.254Z,11.28
2018-09-13T19:48:31.627Z,10.40
2018-09-13T19:50:59.098Z,11.45
2018-09-13T19:53:26.454Z,10.48
2018-09-13T19:55:54.109Z,12.80
2018-09-13T19:58:22.301Z,10.60
2018-09-13T20:00:52.097Z,10.00
2018-09-13T20:03:19.827Z,12.90
2018-09-13T20:05:49.149Z,14.28
2018-09-13T20:08:17.144Z,11.00
2018-09-13T20:10:46.065Z,11.80
2018-09-13T20:13:16.449Z,11.30
2018-09-13T20:15:45.776Z,11.60
2018-09-13T20:18:16.625Z,11.57
2018-09-13T20:20:46.930Z,11.95
2018-09-13T20:23:17.929Z,12.13
2018-09-13T20:25:49.293Z,12.07
2018-09-13T20:28:18.877Z,14.13
2018-09-13T20:30:46.561Z,12.50
2018-09-13T20:33:16.213Z,13.60
2018-09-13T20:35:45.846Z,12.47
2018-09-13T20:38:16.517Z,14.15
2018-09-13T20:40:45.216Z,12.20
2018-09-13T20:43:14.278Z,14.05
2018-09-13T20:45:44.061Z,13.32
2018-09-13T20:48:13.330Z,13.62
2018-09-13T20:50:43.494Z,12.40
2018-09-13T20:53:11.712Z,17.00
2018-09-13T20:55:41.186Z,13.38
2018-09-13T20:58:10.473Z,14.43
2018-09-13T21:00:39.994Z,15.18
2018-09-13T21:03:08.225Z,14.43
2018-09-13T21:05:36.730Z,13.00
2018-09-13T21:08:06.685Z,12.35
2018-09-13T21:10:34.829Z,11.48
2018-09-13T21:13:04.254Z,12.45
2018-09-13T21:15:32.353Z,15.05
2018-09-13T21:18:01.985Z,13.35
2018-09-13T21:20:31.003Z,12.07
2018-09-13T21:22:59.443Z,12.90
2018-09-13T21:25:28.717Z,14.07
2018-09-13T21:27:56.959Z,16.17
2018-09-13T21:30:26.021Z,12.45
2018-09-13T21:32:55.996Z,13.90
2018-09-13T21:35:24.464Z,13.03
2018-09-13T21:37:51.880Z,13.70
2018-09-13T21:40:21.769Z,14.93
2018-09-13T21:42:52.555Z,14.60
2018-09-13T21:45:21.418Z,13.43
2018-09-13T21:47:49.810Z,14.10
2018-09-13T21:50:20.156Z,14.50
2018-09-13T21:52:47.995Z,14.75
2018-09-13T21:55:15.419Z,14.18
2018-09-13T21:57:45.894Z,16.30
2018-09-13T22:00:14.896Z,13.60
2018-09-13T22:02:43.555Z,14.18
2018-09-13T22:05:13.219Z,14.75
2018-09-13T22:07:42.835Z,16.45
2018-09-13T22:10:11.746Z,14.20
2018-09-13T22:12:39.734Z,13.78
2018-09-13T22:15:09.345Z,15.18
2018-09-13T22:17:40.063Z,12.47
2018-09-13T22:20:09.951Z,13.48
2018-09-13T22:22:38.592Z,13.98
2018-09-13T22:25:07.443Z,14.25
2018-09-13T22:27:37.787Z,15.15
2018-09-13T22:30:06.781Z,13.38
2018-09-13T22:32:34.368Z,12.58
2018-09-13T22:35:02.235Z,11.95
2018-09-13T22:37:29.802Z,16.65
2018-09-13T22:39:57.842Z,13.83
2018-09-13T22:42:25.159Z,13.20
2018-09-13T22:44:56.950Z,14.05
2018-09-13T22:47:24.510Z,13.05
2018-09-13T22:49:52.217Z,14.70
2018-09-13T22:55:03.815Z,12.95
2018-09-13T22:57:31.717Z,13.65
2018-09-13T22:59:59.093Z,15.80
2018-09-13T23:02:26.507Z,13.15
2018-09-13T23:04:53.912Z,16.90
2018-09-13T23:07:21.233Z,16.48
2018-09-13T23:09:48.774Z,15.18
2018-09-13T23:12:16.615Z,13.48
2018-09-13T23:14:43.911Z,16.25
2018-09-13T23:17:11.232Z,15.13
2018-09-13T23:19:39.261Z,16.97
2018-09-13T23:22:06.918Z,15.85
2018-09-13T23:24:34.259Z,15.53
2018-09-13T23:27:01.770Z,14.25
2018-09-13T23:29:29.325Z,15.15
2018-09-13T23:31:56.639Z,13.80
2018-09-13T23:34:24.190Z,14.80
2018-09-13T23:36:51.593Z,16.00
2018-09-13T23:39:19.231Z,15.98
2018-09-13T23:41:46.715Z,13.15
2018-09-13T23:44:14.014Z,14.60
2018-09-13T23:46:41.572Z,15.83
2018-09-13T23:49:09.125Z,13.10
2018-09-13T23:51:36.431Z,13.60
2018-09-13T23:54:03.764Z,13.10
2018-09-13T23:56:31.337Z,13.35
2018-09-13T23:58:59.133Z,13.32
